Snoqualmie River: South Fork station

back to: Snoqualmie river
South Fork station Summary - (NOAA Hydrograph: GARW1)
Latest reading:
Mon06/25 09:15 am 10.73 ft 213 cfs (+12/hr)
Past 24hr max:
Sun06/24 11:00 pm 10.79 ft 230 cfs
Forecasted crests: (published Mon 06/25/18 09:06 am)
Mon06/25 11:00 am 10.71 ft 207 cfs
Tue07/03 11:00 pm 10.16 ft 82 cfs
Wed07/04 05:00 pm 10.15 ft 81 cfs

South Fork station Details

Latest Readings

Last 100 Readings:
Mon06/25 09:15 am 10.73 ft 213 cfs
Mon06/25 09:00 am 10.72 ft 210 cfs
Mon06/25 08:45 am 10.73 ft 213 cfs
Mon06/25 08:30 am 10.74 ft 216 cfs
Mon06/25 08:15 am 10.73 ft 213 cfs
Mon06/25 08:00 am 10.74 ft 216 cfs
Mon06/25 07:45 am 10.74 ft 216 cfs
Mon06/25 07:30 am 10.74 ft 216 cfs
Mon06/25 07:15 am 10.75 ft 219 cfs
Mon06/25 07:00 am 10.74 ft 216 cfs
Mon06/25 06:45 am 10.76 ft 221 cfs
Mon06/25 06:30 am 10.75 ft 219 cfs
Mon06/25 06:15 am 10.76 ft 221 cfs
Mon06/25 06:00 am 10.77 ft 224 cfs
Mon06/25 05:45 am 10.76 ft 221 cfs
Mon06/25 05:30 am 10.76 ft 221 cfs
Mon06/25 05:15 am 10.76 ft 221 cfs
Mon06/25 05:00 am 10.76 ft 221 cfs
Mon06/25 04:45 am 10.76 ft 221 cfs
Mon06/25 04:30 am 10.77 ft 224 cfs
Mon06/25 04:15 am 10.76 ft 221 cfs
Mon06/25 04:00 am 10.76 ft 221 cfs
Mon06/25 03:45 am 10.77 ft 224 cfs
Mon06/25 03:30 am 10.77 ft 224 cfs
Mon06/25 03:15 am 10.77 ft 224 cfs
Mon06/25 03:00 am 10.77 ft 224 cfs
Mon06/25 02:45 am 10.78 ft 227 cfs
Mon06/25 02:30 am 10.79 ft 230 cfs
Mon06/25 02:15 am 10.78 ft 227 cfs
Mon06/25 02:00 am 10.78 ft 227 cfs
Mon06/25 01:45 am 10.79 ft 230 cfs
Mon06/25 01:30 am 10.79 ft 230 cfs
Mon06/25 01:15 am 10.78 ft 227 cfs
Mon06/25 01:00 am 10.78 ft 227 cfs
Mon06/25 12:45 am 10.77 ft 224 cfs
Mon06/25 12:30 am 10.78 ft 227 cfs
Mon06/25 12:15 am 10.79 ft 230 cfs
Mon06/25 12:00 am 10.78 ft 227 cfs
Sun06/24 11:45 pm 10.78 ft 227 cfs
Sun06/24 11:30 pm 10.78 ft 227 cfs
Sun06/24 11:15 pm 10.77 ft 224 cfs
Sun06/24 11:00 pm 10.79 ft 230 cfs
Sun06/24 10:45 pm 10.78 ft 227 cfs
Sun06/24 10:30 pm 10.78 ft 227 cfs
Sun06/24 10:15 pm 10.77 ft 224 cfs
Sun06/24 10:00 pm 10.77 ft 224 cfs
Sun06/24 09:45 pm 10.76 ft 221 cfs
Sun06/24 09:30 pm 10.75 ft 219 cfs
Sun06/24 09:15 pm 10.74 ft 216 cfs
Sun06/24 09:00 pm 10.73 ft 213 cfs
Sun06/24 08:45 pm 10.73 ft 213 cfs
Sun06/24 08:30 pm 10.72 ft 210 cfs
Sun06/24 08:15 pm 10.71 ft 207 cfs
Sun06/24 08:00 pm 10.7 ft 204 cfs
Sun06/24 07:45 pm 10.69 ft 202 cfs
Sun06/24 07:30 pm 10.67 ft 196 cfs
Sun06/24 07:15 pm 10.67 ft 196 cfs
Sun06/24 07:00 pm 10.67 ft 196 cfs
Sun06/24 06:45 pm 10.65 ft 191 cfs
Sun06/24 06:30 pm 10.65 ft 191 cfs
Sun06/24 06:15 pm 10.64 ft 188 cfs
Sun06/24 06:00 pm 10.64 ft 188 cfs
Sun06/24 05:45 pm 10.63 ft 185 cfs
Sun06/24 05:30 pm 10.63 ft 185 cfs
Sun06/24 05:15 pm 10.62 ft 183 cfs
Sun06/24 05:00 pm 10.62 ft 183 cfs
Sun06/24 04:45 pm 10.62 ft 183 cfs
Sun06/24 04:30 pm 10.62 ft 183 cfs
Sun06/24 04:15 pm 10.61 ft 180 cfs
Sun06/24 04:00 pm 10.61 ft 180 cfs
Sun06/24 03:45 pm 10.61 ft 180 cfs
Sun06/24 03:30 pm 10.61 ft 180 cfs
Sun06/24 03:15 pm 10.62 ft 183 cfs
Sun06/24 03:00 pm 10.62 ft 183 cfs
Sun06/24 02:45 pm 10.62 ft 183 cfs
Sun06/24 02:30 pm 10.61 ft 180 cfs
Sun06/24 02:15 pm 10.63 ft 185 cfs
Sun06/24 02:00 pm 10.63 ft 185 cfs
Sun06/24 01:45 pm 10.63 ft 185 cfs
Sun06/24 01:30 pm 10.63 ft 185 cfs
Sun06/24 01:15 pm 10.63 ft 185 cfs
Sun06/24 01:00 pm 10.65 ft 191 cfs
Sun06/24 12:45 pm 10.63 ft 185 cfs
Sun06/24 12:30 pm 10.65 ft 191 cfs
Sun06/24 12:15 pm 10.65 ft 191 cfs
Sun06/24 12:00 pm 10.65 ft 191 cfs
Sun06/24 11:45 am 10.65 ft 191 cfs
Sun06/24 11:30 am 10.66 ft 193 cfs
Sun06/24 11:15 am 10.66 ft 193 cfs
Sun06/24 11:00 am 10.65 ft 191 cfs
Sun06/24 10:45 am 10.66 ft 193 cfs
Sun06/24 10:30 am 10.67 ft 196 cfs
Sun06/24 10:15 am 10.66 ft 193 cfs
Sun06/24 10:00 am 10.66 ft 193 cfs
Sun06/24 09:45 am 10.67 ft 196 cfs
Sun06/24 09:30 am 10.67 ft 196 cfs
Sun06/24 09:15 am 10.67 ft 196 cfs
Sun06/24 09:00 am 10.68 ft 199 cfs
Sun06/24 08:45 am 10.67 ft 196 cfs
Sun06/24 08:30 am 10.67 ft 196 cfs

Latest Forecasts

Currently Forecasted Readings:
Mon06/25 11:00 am 10.71 ft 207 cfs
Mon06/25 05:00 pm 10.67 ft 197 cfs
Mon06/25 11:00 pm 10.65 ft 190 cfs
Tue06/26 05:00 am 10.62 ft 183 cfs
Tue06/26 11:00 am 10.59 ft 174 cfs
Tue06/26 05:00 pm 10.56 ft 167 cfs
Tue06/26 11:00 pm 10.54 ft 162 cfs
Wed06/27 05:00 am 10.52 ft 158 cfs
Wed06/27 11:00 am 10.5 ft 152 cfs
Wed06/27 05:00 pm 10.47 ft 145 cfs
Wed06/27 11:00 pm 10.45 ft 142 cfs
Thu06/28 05:00 am 10.44 ft 138 cfs
Thu06/28 11:00 am 10.41 ft 132 cfs
Thu06/28 05:00 pm 10.39 ft 127 cfs
Thu06/28 11:00 pm 10.38 ft 124 cfs
Fri06/29 05:00 am 10.38 ft 124 cfs
Fri06/29 11:00 am 10.36 ft 121 cfs
Fri06/29 05:00 pm 10.34 ft 117 cfs
Fri06/29 11:00 pm 10.33 ft 114 cfs
Sat06/30 05:00 am 10.31 ft 110 cfs
Sat06/30 11:00 am 10.29 ft 106 cfs
Sat06/30 05:00 pm 10.27 ft 103 cfs
Sat06/30 11:00 pm 10.26 ft 101 cfs
Sun07/01 05:00 am 10.25 ft 98 cfs
Sun07/01 11:00 am 10.23 ft 95 cfs
Sun07/01 05:00 pm 10.22 ft 92 cfs
Sun07/01 11:00 pm 10.21 ft 91 cfs
Mon07/02 05:00 am 10.2 ft 89 cfs
Mon07/02 11:00 am 10.18 ft 86 cfs
Mon07/02 05:00 pm 10.17 ft 85 cfs
Mon07/02 11:00 pm 10.17 ft 84 cfs
Tue07/03 05:00 am 10.16 ft 83 cfs
Tue07/03 11:00 am 10.15 ft 81 cfs
Tue07/03 05:00 pm 10.15 ft 81 cfs
Tue07/03 11:00 pm 10.16 ft 82 cfs
Wed07/04 05:00 am 10.15 ft 81 cfs
Wed07/04 11:00 am 10.15 ft 80 cfs
Wed07/04 05:00 pm 10.15 ft 81 cfs
Wed07/04 11:00 pm 10.15 ft 81 cfs
Thu07/05 05:00 am 10.16 ft 83 cfs

Snoqualmie River flood gauge data supplied by the
National Weather Service Northwest River Forecast Center.

Sign up for Floodzilla alerts.